Time;durP1;ratioP1;P1;durP2;ratioP2;P2;SDS_P1;SDS_P2;PMS_P1;PMS_P2;Temp;Humidity;BMP_temperature;BMP_pressure;BME280_temperature;BME280_humidity;BME280_pressure;Samples;Min_cycle;Max_cycle;Signal;HPM_P1;HPM_P2
2022/01/05 00:08:29;;;;;;;6.47;2.60;;;;;;;5.74;100.00;98840.81;20943366;28;20048;-73
2022/01/05 00:18:31;;;;;;;5.05;1.92;;;;;;;5.71;100.00;98846.09;20939642;28;20063;-73
2022/01/05 00:28:33;;;;;;;6.07;2.35;;;;;;;5.71;100.00;98830.53;20940078;28;20449;-73
2022/01/05 00:38:34;;;;;;;7.90;2.22;;;;;;;5.69;100.00;98841.81;20939357;28;20048;-73
2022/01/05 00:48:36;;;;;;;2.30;0.95;;;;;;;5.61;100.00;98810.84;20937622;28;20505;-73
2022/01/05 00:58:38;;;;;;;2.47;0.82;;;;;;;5.61;100.00;98816.03;20930602;28;20045;-74
2022/01/05 01:08:39;;;;;;;3.63;0.95;;;;;;;5.81;100.00;98842.41;20938609;28;20045;-72
2022/01/05 01:18:41;;;;;;;3.20;0.90;;;;;;;5.86;100.00;98847.50;20936418;28;20053;-72
2022/01/05 01:28:42;;;;;;;3.78;1.65;;;;;;;5.83;100.00;98838.03;20935826;28;20041;-73
2022/01/05 01:38:44;;;;;;;2.63;1.00;;;;;;;5.94;100.00;98852.56;20934846;28;20052;-71
2022/01/05 01:48:46;;;;;;;1.25;0.60;;;;;;;5.86;100.00;98857.91;20931850;28;20361;-73
2022/01/05 01:58:48;;;;;;;2.97;0.90;;;;;;;5.87;100.00;98862.22;20936037;28;20040;-72
2022/01/05 02:08:50;;;;;;;4.30;1.40;;;;;;;5.92;100.00;98886.38;20931290;28;20646;-72
2022/01/05 02:18:58;;;;;;;3.22;1.30;;;;;;;5.95;100.00;98877.66;20928397;28;20111;-72
2022/01/05 02:29:00;;;;;;;2.75;1.40;;;;;;;5.80;100.00;98856.31;21029820;22;20041;-73
2022/01/05 02:39:02;;;;;;;5.45;2.00;;;;;;;5.77;100.00;98873.69;20924026;28;20497;-72
2022/01/05 02:49:04;;;;;;;3.85;1.95;;;;;;;5.73;100.00;98878.06;20925248;28;20465;-71
2022/01/05 02:59:06;;;;;;;4.03;1.90;;;;;;;5.64;100.00;98892.09;20921455;28;20500;-71
2022/01/05 03:09:07;;;;;;;3.45;1.40;;;;;;;5.77;100.00;98903.09;20917654;28;20045;-71
2022/01/05 03:19:09;;;;;;;4.82;1.30;;;;;;;5.86;100.00;98918.50;20910807;28;20049;-69
2022/01/05 03:29:10;;;;;;;3.45;1.40;;;;;;;5.83;100.00;98930.69;20919556;28;20456;-69
2022/01/05 03:39:12;;;;;;;3.92;1.50;;;;;;;5.85;100.00;98960.09;20920743;28;20048;-69
2022/01/05 03:49:13;;;;;;;2.60;1.00;;;;;;;5.94;100.00;98995.44;20934485;28;20049;-68
2022/01/05 03:59:15;;;;;;;2.15;0.80;;;;;;;6.02;100.00;99020.38;20935724;28;20045;-68
2022/01/05 04:09:16;;;;;;;1.40;0.20;;;;;;;4.73;93.59;99109.81;20939565;28;20040;-71
2022/01/05 04:19:18;;;;;;;0.57;0.20;;;;;;;4.57;94.21;99163.59;20940598;28;20048;-70
2022/01/05 04:29:19;;;;;;;1.40;0.30;;;;;;;4.60;93.26;99186.03;20935742;28;20091;-69
2022/01/05 04:39:21;;;;;;;0.10;0.10;;;;;;;4.55;87.93;99201.66;20935426;28;20492;-69
2022/01/05 04:49:23;;;;;;;1.55;0.22;;;;;;;4.53;89.81;99226.72;20936775;28;20045;-69
2022/01/05 04:59:24;;;;;;;1.75;0.20;;;;;;;4.54;90.99;99217.19;20935338;28;20045;-70
2022/01/05 05:09:26;;;;;;;0.95;0.22;;;;;;;4.51;91.04;99243.16;20936365;28;20053;-70
2022/01/05 05:19:28;;;;;;;1.85;0.20;;;;;;;4.31;98.05;99271.84;20935183;28;20115;-70
2022/01/05 05:29:30;;;;;;;0.98;0.20;;;;;;;4.20;98.23;99281.44;20935165;28;20041;-71
2022/01/05 05:39:33;;;;;;;2.05;0.40;;;;;;;4.19;97.18;99324.63;20927259;28;20045;-70
2022/01/05 05:49:34;;;;;;;1.33;0.77;;;;;;;4.27;92.33;99342.72;20932030;28;20091;-71
2022/01/05 05:59:36;;;;;;;3.65;0.60;;;;;;;3.96;98.06;99391.25;20930970;28;20106;-70
2022/01/05 06:09:39;;;;;;;1.75;0.70;;;;;;;3.62;100.00;99404.34;20930815;28;20604;-70
2022/01/05 06:19:40;;;;;;;4.78;1.35;;;;;;;3.46;93.60;99424.25;20911230;28;20078;-69
2022/01/05 06:29:42;;;;;;;5.53;1.40;;;;;;;3.42;93.40;99447.53;20929789;28;20090;-72
2022/01/05 06:39:44;;;;;;;5.88;1.52;;;;;;;3.44;88.92;99457.00;20923855;28;20086;-70
2022/01/05 06:49:45;;;;;;;5.38;1.50;;;;;;;3.29;84.06;99494.13;20907347;28;20126;-69
2022/01/05 06:59:47;;;;;;;5.80;1.80;;;;;;;3.14;85.51;99525.16;20915546;28;20387;-70
2022/01/05 07:09:49;;;;;;;8.98;1.77;;;;;;;3.08;86.69;99551.03;20923105;28;20389;-69
2022/01/05 07:19:50;;;;;;;7.68;2.05;;;;;;;3.09;88.36;99581.22;20926359;28;20479;-69
2022/01/05 07:29:52;;;;;;;6.30;2.30;;;;;;;3.08;90.64;99605.34;20942198;28;20067;-69
2022/01/05 07:39:54;;;;;;;6.10;2.40;;;;;;;3.08;92.10;99638.97;20940214;28;20045;-69
2022/01/05 07:49:56;;;;;;;5.68;2.10;;;;;;;3.14;87.69;99651.91;20941311;28;20111;-70
2022/01/05 07:59:57;;;;;;;5.90;2.30;;;;;;;3.08;87.67;99670.88;20940117;28;20053;-69
2022/01/05 08:09:59;;;;;;;6.70;1.90;;;;;;;3.02;79.06;99690.69;20928391;28;20098;-69
2022/01/05 08:20:01;;;;;;;10.18;2.03;;;;;;;2.91;76.09;99702.69;20935076;28;20040;-70
2022/01/05 08:30:05;;;;;;;9.65;2.08;;;;;;;2.87;71.43;99711.28;20920601;28;20401;-70
2022/01/05 08:40:08;;;;;;;8.50;1.85;;;;;;;3.15;70.61;99720.03;20934594;28;20052;-70
2022/01/05 08:50:10;;;;;;;11.52;1.70;;;;;;;2.95;71.39;99727.72;20934916;28;20048;-71
2022/01/05 09:00:12;;;;;;;6.18;1.50;;;;;;;3.07;69.81;99728.63;20933575;28;20101;-70
2022/01/05 09:10:13;;;;;;;11.57;1.65;;;;;;;3.10;68.89;99738.09;20932762;28;20136;-70
2022/01/05 09:20:15;;;;;;;11.75;1.92;;;;;;;3.02;70.91;99758.78;20930661;28;20082;-70
2022/01/05 09:30:17;;;;;;;10.07;1.77;;;;;;;3.40;71.62;99780.47;20924862;28;20057;-74
2022/01/05 09:50:48;;;;;;;9.05;2.22;;;;;;;3.42;70.97;99809.81;20927905;28;20041;-70
2022/01/05 10:00:51;;;;;;;13.30;2.28;;;;;;;3.50;71.22;99813.31;20928953;28;20053;-69
2022/01/05 10:10:53;;;;;;;8.80;2.38;;;;;;;3.46;71.98;99817.59;20929475;28;20493;-71
2022/01/05 10:21:05;;;;;;;15.40;2.28;;;;;;;3.60;72.50;99810.75;20925401;28;20478;-74
2022/01/05 10:31:13;;;;;;;11.10;2.13;;;;;;;3.75;68.70;99822.00;20931141;28;20188;-69
2022/01/05 10:41:20;;;;;;;14.45;2.50;;;;;;;3.59;68.33;99834.00;20924436;28;20059;-70
2022/01/05 10:51:28;;;;;;;11.77;2.47;;;;;;;3.36;69.58;99833.94;20927044;28;20456;-77
2022/01/05 11:01:30;;;;;;;15.60;3.38;;;;;;;3.43;68.83;99848.63;20950874;28;20103;-73
2022/01/05 11:11:37;;;;;;;10.77;2.20;;;;;;;3.55;66.75;99860.78;20950295;28;20044;-70
2022/01/05 11:21:53;;;;;;;9.98;2.00;;;;;;;3.68;66.93;99867.69;20919711;28;20072;-81
2022/01/05 11:31:57;;;;;;;9.85;2.33;;;;;;;3.43;65.58;99873.63;20937657;28;20043;-72
2022/01/05 11:42:06;;;;;;;10.53;2.63;;;;;;;3.31;66.90;99859.78;20940958;28;20056;-70
2022/01/05 11:52:07;;;;;;;9.52;2.40;;;;;;;3.62;64.86;99859.91;20932097;28;20053;-70
2022/01/05 12:02:12;;;;;;;13.43;2.63;;;;;;;3.75;66.43;99876.38;20932191;28;20587;-70
2022/01/05 12:12:23;;;;;;;6.30;1.67;;;;;;;3.82;64.81;99868.59;20932097;28;20049;-70
2022/01/05 12:22:28;;;;;;;10.70;2.55;;;;;;;3.71;64.39;99882.41;20934550;28;20049;-69
2022/01/05 12:32:41;;;;;;;10.43;1.85;;;;;;;3.54;65.16;99878.00;20925913;28;20036;-70
2022/01/05 12:42:42;;;;;;;10.32;2.10;;;;;;;3.59;65.10;99883.19;20910015;28;20044;-70
2022/01/05 12:52:44;;;;;;;7.75;1.70;;;;;;;3.60;64.15;99897.88;20915036;28;20044;-70
2022/01/05 13:02:47;;;;;;;9.82;2.10;;;;;;;3.47;63.44;99922.84;20933894;28;20464;-69
2022/01/05 13:12:48;;;;;;;12.18;2.17;;;;;;;3.71;64.67;99927.28;20929689;28;20357;-70
2022/01/05 13:22:53;;;;;;;16.33;1.77;;;;;;;3.76;63.49;99933.31;20929092;28;20057;-69
2022/01/05 13:32:59;;;;;;;13.05;2.30;;;;;;;3.85;64.08;99963.59;20927690;28;20095;-69
2022/01/05 13:43:03;;;;;;;12.90;2.08;;;;;;;3.72;64.96;99973.00;20928336;28;20517;-72
2022/01/05 13:53:07;;;;;;;11.57;1.90;;;;;;;3.87;66.33;99977.38;20927828;28;20102;-69
2022/01/05 14:03:32;;;;;;;9.65;1.88;;;;;;;3.67;65.61;99987.66;20928547;28;20417;-69
2022/01/05 14:13:48;;;;;;;5.47;1.63;;;;;;;3.98;66.26;99995.59;20914885;28;20045;-70
2022/01/05 14:23:49;;;;;;;9.13;2.08;;;;;;;3.83;65.89;100015.38;20920481;28;20074;-71
2022/01/05 14:33:53;;;;;;;8.90;2.10;;;;;;;3.86;66.23;100005.00;20938000;23;20072;-70
2022/01/05 14:44:05;;;;;;;10.13;1.97;;;;;;;3.78;66.67;100001.50;20926374;28;20045;-70
2022/01/05 14:54:07;;;;;;;7.47;1.85;;;;;;;3.64;66.85;100005.78;20925631;28;20056;-70
2022/01/05 15:04:09;;;;;;;15.55;4.43;;;;;;;3.88;66.97;99998.97;20926470;28;20057;-73
2022/01/05 15:14:11;;;;;;;14.45;3.85;;;;;;;3.76;68.44;100003.25;20911516;28;20045;-73
2022/01/05 15:24:13;;;;;;;9.68;2.42;;;;;;;3.57;67.67;100006.59;20892137;28;20041;-71
2022/01/05 15:34:15;;;;;;;7.68;2.05;;;;;;;3.56;65.12;100041.09;20912878;28;20041;-71
2022/01/05 15:44:18;;;;;;;8.82;2.00;;;;;;;3.53;66.55;100047.09;20906770;28;20052;-71
2022/01/05 15:54:19;;;;;;;8.15;1.92;;;;;;;3.65;66.08;100056.69;20940845;28;20064;-71
2022/01/05 16:04:21;;;;;;;11.90;2.05;;;;;;;3.48;69.45;100056.56;20937681;28;20053;-70
2022/01/05 16:14:23;;;;;;;9.20;2.25;;;;;;;3.43;69.17;100044.44;20937896;28;20074;-69
2022/01/05 16:24:25;;;;;;;11.18;2.30;;;;;;;3.34;70.99;100051.28;20940595;28;20093;-70
2022/01/05 16:34:26;;;;;;;9.98;2.75;;;;;;;3.29;73.32;100060.72;20926477;28;20131;-69
2022/01/05 16:44:28;;;;;;;11.50;2.72;;;;;;;3.30;72.56;100062.44;20934632;28;20523;-70
2022/01/05 16:54:33;;;;;;;14.45;2.60;;;;;;;3.16;72.28;100068.38;20928619;28;20060;-71
2022/01/05 17:04:35;;;;;;;8.75;2.17;;;;;;;2.96;72.97;100063.00;20933713;28;20139;-71
2022/01/05 17:14:38;;;;;;;11.23;2.15;;;;;;;2.85;74.25;100085.31;20937718;28;20064;-71
2022/01/05 17:24:40;;;;;;;12.18;2.90;;;;;;;2.83;75.15;100083.59;20932818;28;20761;-71
2022/01/05 17:34:42;;;;;;;5.82;1.92;;;;;;;2.85;75.26;100085.31;20932123;28;20048;-71
2022/01/05 17:44:44;;;;;;;13.30;2.97;;;;;;;2.76;77.16;100107.63;20924301;28;20089;-71
2022/01/05 17:54:45;;;;;;;10.23;2.45;;;;;;;2.88;77.15;100134.50;20927355;28;20140;-72
2022/01/05 18:04:47;;;;;;;12.23;3.20;;;;;;;3.06;75.48;100139.84;20923776;28;20153;-72
2022/01/05 18:14:49;;;;;;;10.63;2.80;;;;;;;3.05;75.62;100140.69;20924399;28;20060;-72
2022/01/05 18:24:51;;;;;;;14.85;3.70;;;;;;;3.02;77.58;100120.00;20925997;28;20056;-72
2022/01/05 18:34:52;;;;;;;12.90;2.40;;;;;;;3.06;76.34;100119.13;20918840;28;20072;-71
2022/01/05 18:44:55;;;;;;;14.25;3.40;;;;;;;3.02;77.87;100135.50;20908728;28;20494;-71
2022/01/05 18:54:59;;;;;;;12.02;3.47;;;;;;;2.95;77.25;100159.56;20922219;28;20422;-71
2022/01/05 19:05:01;;;;;;;12.33;3.77;;;;;;;2.94;78.63;100161.28;20914465;28;20123;-72
2022/01/05 19:15:08;;;;;;;12.38;3.83;;;;;;;3.13;77.96;100159.75;20921204;28;20311;-72
2022/01/05 19:25:09;;;;;;;14.77;3.83;;;;;;;3.08;79.21;100161.44;20937859;28;20540;-72
2022/01/05 19:35:29;;;;;;;11.93;3.50;;;;;;;3.28;77.92;100161.63;20932037;28;20045;-72
2022/01/05 19:45:31;;;;;;;12.63;3.75;;;;;;;3.24;77.38;100142.59;20936409;28;20041;-72
2022/01/05 19:55:38;;;;;;;12.70;3.10;;;;;;;3.22;78.34;100146.06;20937576;28;20041;-72
2022/01/05 20:05:40;;;;;;;12.55;3.20;;;;;;;3.24;78.46;100150.38;20937427;28;20420;-72
2022/01/05 20:15:43;;;;;;;14.18;3.28;;;;;;;3.47;76.83;100144.56;20927026;28;20054;-72
2022/01/05 20:25:45;;;;;;;11.27;3.90;;;;;;;3.40;79.30;100147.94;20917531;28;20053;-72
2022/01/05 20:35:47;;;;;;;10.93;3.60;;;;;;;3.36;80.04;100178.09;20918695;28;20608;-70
2022/01/05 20:45:50;;;;;;;12.75;3.55;;;;;;;3.40;80.47;100204.84;20933628;28;20053;-72
2022/01/05 20:55:51;;;;;;;15.73;5.10;;;;;;;3.45;80.22;100200.59;20926414;28;20053;-72
2022/01/05 21:05:53;;;;;;;11.73;3.38;;;;;;;3.44;79.85;100198.88;20929056;28;20039;-72
2022/01/05 21:15:55;;;;;;;10.85;4.07;;;;;;;3.33;82.15;100219.47;20927557;28;20044;-72
2022/01/05 21:25:57;;;;;;;13.80;3.05;;;;;;;3.46;80.68;100218.75;20916078;28;20425;-72
2022/01/05 21:35:59;;;;;;;9.27;3.20;;;;;;;3.42;81.03;100229.91;20927759;28;20059;-73
2022/01/05 21:46:02;;;;;;;9.73;2.72;;;;;;;3.48;81.01;100242.91;20931046;28;20076;-71
2022/01/05 21:56:04;;;;;;;7.93;2.45;;;;;;;3.44;82.13;100228.19;20927118;28;20052;-69
2022/01/05 22:06:05;;;;;;;8.70;2.58;;;;;;;3.42;83.24;100235.09;20917839;28;20049;-69
2022/01/05 22:16:07;;;;;;;10.13;3.15;;;;;;;3.49;83.17;100262.75;20929469;28;20056;-70
2022/01/05 22:26:09;;;;;;;10.07;3.08;;;;;;;3.56;82.74;100266.31;20931906;28;20151;-69
2022/01/05 22:36:10;;;;;;;17.55;5.63;;;;;;;3.54;83.89;100274.03;20928950;28;20434;-69
2022/01/05 22:46:12;;;;;;;11.38;3.05;;;;;;;3.55;84.45;100285.28;20925658;28;20485;-69
2022/01/05 22:56:13;;;;;;;10.13;3.40;;;;;;;3.72;83.01;100283.72;20935372;28;20075;-69
2022/01/05 23:06:15;;;;;;;9.52;3.00;;;;;;;3.64;85.09;100282.78;20943641;28;20390;-69
2022/01/05 23:16:16;;;;;;;14.88;3.00;;;;;;;3.82;83.62;100282.94;20947286;28;20088;-69
2022/01/05 23:26:19;;;;;;;16.15;3.70;;;;;;;3.68;85.42;100279.34;20941201;28;20056;-69
2022/01/05 23:36:25;;;;;;;8.85;2.58;;;;;;;3.64;87.03;100277.63;20947119;28;20056;-69
2022/01/05 23:46:26;;;;;;;13.48;3.72;;;;;;;3.45;87.68;100271.38;20940642;28;20099;-69
2022/01/05 23:56:29;;;;;;;11.23;3.15;;;;;;;3.52;86.49;100288.69;20952457;28;20494;-70
